KSPA/SPA METAR and TAF weather

Enter ICAO airport designator
Station Type Date Time Source
KSPA METAR 2024/06/15 22:55 UTC NOAA

KSPA 152255Z AUTO 11003KT 10SM CLR 32/18 A2998 RMK AO2


Station Type Date Time Source
KSPA Decoded METAR 2024/06/15 22:55 UTC NOAA

Spartanburg Memorial, SC, United States (KSPA) 34-55N 081-57W
Jun 15, 2024 - 06:55 PM EDT / 2024.06.15 2255 UTC
Wind: from the ESE (110 degrees) at 3 MPH (3 KT):0
Visibility: 10 mile(s):0
Sky conditions: clear
Temperature: 89 F (32 C)
Dew Point: 64 F (18 C)
Relative Humidity: 43%
Pressure (altimeter): 29.98 in. Hg (1015 hPa)
ob: KSPA 152255Z AUTO 11003KT 10SM CLR 32/18 A2998 RMK AO2
cycle: 23

Station Type Date Time Source
KSPA TAF UTC NOAA

Error!

Example: see airport list